sensor_id;sensor_type;location;lat;lon;timestamp;temperature;humidity
3478;DHT22;37937;61.490;23.506;2023-03-01T00:00:35;-1.90;99.90
3478;DHT22;37937;61.490;23.506;2023-03-01T00:03:02;-1.90;99.90
3478;DHT22;37937;61.490;23.506;2023-03-01T00:05:28;-1.90;99.90
3478;DHT22;37937;61.490;23.506;2023-03-01T00:07:53;-2.00;99.90
3478;DHT22;37937;61.490;23.506;2023-03-01T00:10:19;-2.00;99.90
3478;DHT22;37937;61.490;23.506;2023-03-01T00:12:45;-2.00;99.90
3478;DHT22;37937;61.490;23.506;2023-03-01T00:15:10;-2.00;99.90
3478;DHT22;37937;61.490;23.506;2023-03-01T00:17:37;-2.00;99.90
3478;DHT22;37937;61.490;23.506;2023-03-01T00:20:02;-2.00;99.90
3478;DHT22;37937;61.490;23.506;2023-03-01T00:22:28;-2.00;99.90
3478;DHT22;37937;61.490;23.506;2023-03-01T00:24:54;-2.10;99.90
3478;DHT22;37937;61.490;23.506;2023-03-01T00:27:19;-2.00;99.90
3478;DHT22;37937;61.490;23.506;2023-03-01T00:29:45;-2.00;99.90
3478;DHT22;37937;61.490;23.506;2023-03-01T00:32:11;-2.00;99.90
3478;DHT22;37937;61.490;23.506;2023-03-01T00:34:36;-2.10;99.90
3478;DHT22;37937;61.490;23.506;2023-03-01T00:37:02;-2.00;99.90
3478;DHT22;37937;61.490;23.506;2023-03-01T00:39:31;-2.00;99.90
3478;DHT22;37937;61.490;23.506;2023-03-01T00:41:57;-2.00;99.90
3478;DHT22;37937;61.490;23.506;2023-03-01T00:44:23;-2.10;99.90
3478;DHT22;37937;61.490;23.506;2023-03-01T00:46:48;-2.00;99.90
3478;DHT22;37937;61.490;23.506;2023-03-01T00:49:14;-2.00;99.90
3478;DHT22;37937;61.490;23.506;2023-03-01T00:51:40;-2.00;99.90
3478;DHT22;37937;61.490;23.506;2023-03-01T00:54:09;-2.00;99.90
3478;DHT22;37937;61.490;23.506;2023-03-01T00:56:35;-2.00;99.90
3478;DHT22;37937;61.490;23.506;2023-03-01T00:59:01;-2.00;99.90
3478;DHT22;37937;61.490;23.506;2023-03-01T01:01:27;-2.00;99.90
3478;DHT22;37937;61.490;23.506;2023-03-01T01:03:57;-2.10;99.90
3478;DHT22;37937;61.490;23.506;2023-03-01T01:06:28;-2.10;99.90
3478;DHT22;37937;61.490;23.506;2023-03-01T01:08:54;-2.10;99.90
3478;DHT22;37937;61.490;23.506;2023-03-01T01:11:20;-2.10;99.90
3478;DHT22;37937;61.490;23.506;2023-03-01T01:13:46;-2.10;99.90
3478;DHT22;37937;61.490;23.506;2023-03-01T01:16:13;-2.10;99.90
3478;DHT22;37937;61.490;23.506;2023-03-01T01:18:38;-2.10;99.90
3478;DHT22;37937;61.490;23.506;2023-03-01T01:21:08;-2.20;99.90
3478;DHT22;37937;61.490;23.506;2023-03-01T01:23:35;-2.20;99.90
3478;DHT22;37937;61.490;23.506;2023-03-01T01:26:08;-2.20;99.90
3478;DHT22;37937;61.490;23.506;2023-03-01T01:28:34;-2.20;99.90
3478;DHT22;37937;61.490;23.506;2023-03-01T01:31:00;-2.30;99.90
3478;DHT22;37937;61.490;23.506;2023-03-01T01:33:26;-2.30;99.90
3478;DHT22;37937;61.490;23.506;2023-03-01T01:35:52;-2.20;99.90
3478;DHT22;37937;61.490;23.506;2023-03-01T01:38:18;-2.30;99.90
3478;DHT22;37937;61.490;23.506;2023-03-01T01:40:44;-2.30;99.90
3478;DHT22;37937;61.490;23.506;2023-03-01T01:43:21;-2.30;99.90
3478;DHT22;37937;61.490;23.506;2023-03-01T01:45:47;-2.30;99.90
3478;DHT22;37937;61.490;23.506;2023-03-01T01:48:13;-2.40;99.90
3478;DHT22;37937;61.490;23.506;2023-03-01T01:50:40;-2.30;99.90
3478;DHT22;37937;61.490;23.506;2023-03-01T01:53:09;-2.30;99.90
3478;DHT22;37937;61.490;23.506;2023-03-01T01:55:36;-2.40;99.90
3478;DHT22;37937;61.490;23.506;2023-03-01T01:58:02;-2.40;99.90
3478;DHT22;37937;61.490;23.506;2023-03-01T02:00:29;-2.40;99.90
3478;DHT22;37937;61.490;23.506;2023-03-01T02:02:59;-2.40;99.90
3478;DHT22;37937;61.490;23.506;2023-03-01T02:05:29;-2.40;99.90
3478;DHT22;37937;61.490;23.506;2023-03-01T02:07:58;-2.30;99.90
3478;DHT22;37937;61.490;23.506;2023-03-01T02:10:24;-2.40;99.90
3478;DHT22;37937;61.490;23.506;2023-03-01T02:12:51;-2.40;99.90
3478;DHT22;37937;61.490;23.506;2023-03-01T02:15:17;-2.30;99.90
3478;DHT22;37937;61.490;23.506;2023-03-01T02:17:42;-2.30;99.90
3478;DHT22;37937;61.490;23.506;2023-03-01T02:22:53;-2.30;99.90
3478;DHT22;37937;61.490;23.506;2023-03-01T02:25:25;-2.30;99.90
3478;DHT22;37937;61.490;23.506;2023-03-01T02:27:54;-2.30;99.90
3478;DHT22;37937;61.490;23.506;2023-03-01T02:30:22;-2.30;99.90
3478;DHT22;37937;61.490;23.506;2023-03-01T02:32:50;-2.30;99.90
3478;DHT22;37937;61.490;23.506;2023-03-01T02:35:16;-2.30;99.90
3478;DHT22;37937;61.490;23.506;2023-03-01T02:37:43;-2.30;99.90
3478;DHT22;37937;61.490;23.506;2023-03-01T02:40:15;-2.30;99.90
3478;DHT22;37937;61.490;23.506;2023-03-01T02:42:47;-2.30;99.90
3478;DHT22;37937;61.490;23.506;2023-03-01T02:45:14;-2.40;99.90
3478;DHT22;37937;61.490;23.506;2023-03-01T02:47:40;-2.40;99.90
3478;DHT22;37937;61.490;23.506;2023-03-01T02:50:12;-2.40;99.90
3478;DHT22;37937;61.490;23.506;2023-03-01T02:52:45;-2.40;99.90
3478;DHT22;37937;61.490;23.506;2023-03-01T02:55:16;-2.40;99.90
3478;DHT22;37937;61.490;23.506;2023-03-01T02:57:43;-2.40;99.90
3478;DHT22;37937;61.490;23.506;2023-03-01T03:00:11;-2.40;99.90
3478;DHT22;37937;61.490;23.506;2023-03-01T03:02:48;-2.40;99.90
3478;DHT22;37937;61.490;23.506;2023-03-01T03:05:16;-2.40;99.90
3478;DHT22;37937;61.490;23.506;2023-03-01T03:07:43;-2.40;99.90
3478;DHT22;37937;61.490;23.506;2023-03-01T03:10:11;-2.40;99.90
3478;DHT22;37937;61.490;23.506;2023-03-01T03:12:37;-2.30;99.90
3478;DHT22;37937;61.490;23.506;2023-03-01T03:15:04;-2.30;99.90
3478;DHT22;37937;61.490;23.506;2023-03-01T03:17:36;-2.30;99.90
3478;DHT22;37937;61.490;23.506;2023-03-01T03:20:02;-2.20;99.90
3478;DHT22;37937;61.490;23.506;2023-03-01T03:22:29;-2.20;99.90
3478;DHT22;37937;61.490;23.506;2023-03-01T03:24:55;-2.10;99.90
3478;DHT22;37937;61.490;23.506;2023-03-01T03:27:20;-2.10;99.90
3478;DHT22;37937;61.490;23.506;2023-03-01T03:29:46;-2.10;99.90
3478;DHT22;37937;61.490;23.506;2023-03-01T03:32:11;-2.00;99.90
3478;DHT22;37937;61.490;23.506;2023-03-01T03:34:37;-2.10;99.90
3478;DHT22;37937;61.490;23.506;2023-03-01T03:37:03;-2.10;99.90
3478;DHT22;37937;61.490;23.506;2023-03-01T03:39:28;-2.10;99.90
3478;DHT22;37937;61.490;23.506;2023-03-01T03:42:00;-2.20;99.90
3478;DHT22;37937;61.490;23.506;2023-03-01T03:44:25;-2.20;99.90
3478;DHT22;37937;61.490;23.506;2023-03-01T03:46:51;-2.20;99.90
3478;DHT22;37937;61.490;23.506;2023-03-01T03:49:17;-2.20;99.90
3478;DHT22;37937;61.490;23.506;2023-03-01T03:51:44;-2.20;99.90
3478;DHT22;37937;61.490;23.506;2023-03-01T03:54:10;-2.30;99.90
3478;DHT22;37937;61.490;23.506;2023-03-01T03:56:36;-2.30;99.90
3478;DHT22;37937;61.490;23.506;2023-03-01T03:59:01;-2.30;99.90
3478;DHT22;37937;61.490;23.506;2023-03-01T04:01:27;-2.40;99.90
3478;DHT22;37937;61.490;23.506;2023-03-01T04:03:53;-2.30;99.90
3478;DHT22;37937;61.490;23.506;2023-03-01T04:06:19;-2.40;99.90
3478;DHT22;37937;61.490;23.506;2023-03-01T04:08:45;-2.30;99.90
3478;DHT22;37937;61.490;23.506;2023-03-01T04:11:11;-2.40;99.90
3478;DHT22;37937;61.490;23.506;2023-03-01T04:13:53;-2.50;99.90
3478;DHT22;37937;61.490;23.506;2023-03-01T04:16:19;-2.50;99.90
3478;DHT22;37937;61.490;23.506;2023-03-01T04:18:45;-2.60;99.90
3478;DHT22;37937;61.490;23.506;2023-03-01T04:21:11;-2.60;99.90
3478;DHT22;37937;61.490;23.506;2023-03-01T04:23:37;-2.60;99.90
3478;DHT22;37937;61.490;23.506;2023-03-01T04:26:03;-2.60;99.90
3478;DHT22;37937;61.490;23.506;2023-03-01T04:28:30;-2.60;99.90
3478;DHT22;37937;61.490;23.506;2023-03-01T04:30:57;-2.60;99.90
3478;DHT22;37937;61.490;23.506;2023-03-01T04:33:24;-2.60;99.90
3478;DHT22;37937;61.490;23.506;2023-03-01T04:35:50;-2.60;99.90
3478;DHT22;37937;61.490;23.506;2023-03-01T04:38:16;-2.60;99.90
3478;DHT22;37937;61.490;23.506;2023-03-01T04:40:42;-2.50;99.90
3478;DHT22;37937;61.490;23.506;2023-03-01T04:43:11;-2.40;99.90
3478;DHT22;37937;61.490;23.506;2023-03-01T04:45:38;-2.50;99.90
3478;DHT22;37937;61.490;23.506;2023-03-01T04:48:04;-2.50;99.90
3478;DHT22;37937;61.490;23.506;2023-03-01T04:50:30;-2.40;99.90
3478;DHT22;37937;61.490;23.506;2023-03-01T04:52:55;-2.40;99.90
3478;DHT22;37937;61.490;23.506;2023-03-01T04:55:25;-2.30;99.90
3478;DHT22;37937;61.490;23.506;2023-03-01T04:57:51;-2.30;99.90
3478;DHT22;37937;61.490;23.506;2023-03-01T05:00:17;-2.30;99.90
3478;DHT22;37937;61.490;23.506;2023-03-01T05:02:53;-2.30;99.90
3478;DHT22;37937;61.490;23.506;2023-03-01T05:05:26;-2.20;99.90
3478;DHT22;37937;61.490;23.506;2023-03-01T05:07:52;-2.20;99.90
3478;DHT22;37937;61.490;23.506;2023-03-01T05:10:18;-2.20;99.90
3478;DHT22;37937;61.490;23.506;2023-03-01T05:12:44;-2.10;99.90
3478;DHT22;37937;61.490;23.506;2023-03-01T05:15:09;-2.10;99.90
3478;DHT22;37937;61.490;23.506;2023-03-01T05:17:35;-2.10;99.90
3478;DHT22;37937;61.490;23.506;2023-03-01T05:20:01;-2.10;99.90
3478;DHT22;37937;61.490;23.506;2023-03-01T05:22:31;-2.10;99.90
3478;DHT22;37937;61.490;23.506;2023-03-01T05:24:56;-2.00;99.90
3478;DHT22;37937;61.490;23.506;2023-03-01T05:27:22;-2.00;99.90
3478;DHT22;37937;61.490;23.506;2023-03-01T05:29:47;-2.00;99.90
3478;DHT22;37937;61.490;23.506;2023-03-01T05:32:13;-2.00;99.90
3478;DHT22;37937;61.490;23.506;2023-03-01T05:34:41;-1.90;99.90
3478;DHT22;37937;61.490;23.506;2023-03-01T05:37:07;-1.90;99.90
3478;DHT22;37937;61.490;23.506;2023-03-01T05:39:33;-1.90;99.90
3478;DHT22;37937;61.490;23.506;2023-03-01T05:41:59;-2.00;99.90
3478;DHT22;37937;61.490;23.506;2023-03-01T05:44:25;-2.00;99.90
3478;DHT22;37937;61.490;23.506;2023-03-01T05:46:51;-1.90;99.90
3478;DHT22;37937;61.490;23.506;2023-03-01T05:49:17;-1.90;99.90
3478;DHT22;37937;61.490;23.506;2023-03-01T05:51:46;-1.90;99.90
3478;DHT22;37937;61.490;23.506;2023-03-01T05:54:12;-2.00;99.90
3478;DHT22;37937;61.490;23.506;2023-03-01T05:56:38;-2.00;99.90
3478;DHT22;37937;61.490;23.506;2023-03-01T05:59:04;-2.00;99.90
3478;DHT22;37937;61.490;23.506;2023-03-01T06:01:33;-2.00;99.90
3478;DHT22;37937;61.490;23.506;2023-03-01T06:03:58;-2.00;99.90
3478;DHT22;37937;61.490;23.506;2023-03-01T06:06:24;-2.00;99.90
3478;DHT22;37937;61.490;23.506;2023-03-01T06:08:50;-2.00;99.90
3478;DHT22;37937;61.490;23.506;2023-03-01T06:11:16;-2.00;99.90
3478;DHT22;37937;61.490;23.506;2023-03-01T06:13:42;-2.00;99.90
3478;DHT22;37937;61.490;23.506;2023-03-01T06:16:08;-1.90;99.90
3478;DHT22;37937;61.490;23.506;2023-03-01T06:18:33;-1.90;99.90
3478;DHT22;37937;61.490;23.506;2023-03-01T06:21:00;-1.90;99.90
3478;DHT22;37937;61.490;23.506;2023-03-01T06:23:25;-1.90;99.90
3478;DHT22;37937;61.490;23.506;2023-03-01T06:25:51;-1.80;99.90
3478;DHT22;37937;61.490;23.506;2023-03-01T06:28:17;-1.80;99.90
3478;DHT22;37937;61.490;23.506;2023-03-01T06:30:43;-1.80;99.90
3478;DHT22;37937;61.490;23.506;2023-03-01T06:33:08;-1.70;99.90
3478;DHT22;37937;61.490;23.506;2023-03-01T06:35:34;-1.70;99.90
3478;DHT22;37937;61.490;23.506;2023-03-01T06:38:00;-1.60;99.90
3478;DHT22;37937;61.490;23.506;2023-03-01T06:40:27;-1.60;99.90
3478;DHT22;37937;61.490;23.506;2023-03-01T06:42:52;-1.50;99.90
3478;DHT22;37937;61.490;23.506;2023-03-01T06:45:19;-1.30;99.90
3478;DHT22;37937;61.490;23.506;2023-03-01T06:47:45;-1.20;99.90
3478;DHT22;37937;61.490;23.506;2023-03-01T06:50:11;-1.00;99.90
3478;DHT22;37937;61.490;23.506;2023-03-01T06:52:36;-0.90;99.90
3478;DHT22;37937;61.490;23.506;2023-03-01T06:55:02;-0.80;99.90
3478;DHT22;37937;61.490;23.506;2023-03-01T06:57:28;-0.70;99.90
3478;DHT22;37937;61.490;23.506;2023-03-01T06:59:54;-0.60;99.90
3478;DHT22;37937;61.490;23.506;2023-03-01T07:02:19;-0.50;99.90
3478;DHT22;37937;61.490;23.506;2023-03-01T07:04:45;-0.40;99.90
3478;DHT22;37937;61.490;23.506;2023-03-01T07:07:10;-0.40;99.90
3478;DHT22;37937;61.490;23.506;2023-03-01T07:09:36;-0.20;99.90
3478;DHT22;37937;61.490;23.506;2023-03-01T07:12:02;-0.10;99.90
3478;DHT22;37937;61.490;23.506;2023-03-01T07:14:27;0.10;99.90
3478;DHT22;37937;61.490;23.506;2023-03-01T07:16:53;0.20;99.90
3478;DHT22;37937;61.490;23.506;2023-03-01T07:19:20;0.10;99.90
3478;DHT22;37937;61.490;23.506;2023-03-01T07:21:46;0.30;99.90
3478;DHT22;37937;61.490;23.506;2023-03-01T07:24:11;0.20;99.90
3478;DHT22;37937;61.490;23.506;2023-03-01T07:26:37;0.40;99.90
3478;DHT22;37937;61.490;23.506;2023-03-01T07:29:03;0.50;99.90
3478;DHT22;37937;61.490;23.506;2023-03-01T07:31:29;0.60;99.90
3478;DHT22;37937;61.490;23.506;2023-03-01T07:33:55;0.70;99.90
3478;DHT22;37937;61.490;23.506;2023-03-01T07:36:20;0.70;99.90
3478;DHT22;37937;61.490;23.506;2023-03-01T07:38:46;0.80;99.90
3478;DHT22;37937;61.490;23.506;2023-03-01T07:41:11;0.90;99.90
3478;DHT22;37937;61.490;23.506;2023-03-01T07:43:37;0.80;99.90
3478;DHT22;37937;61.490;23.506;2023-03-01T07:46:03;0.80;99.90
3478;DHT22;37937;61.490;23.506;2023-03-01T07:48:29;0.80;99.90
3478;DHT22;37937;61.490;23.506;2023-03-01T07:50:57;0.70;99.90
3478;DHT22;37937;61.490;23.506;2023-03-01T07:53:23;0.80;99.90
3478;DHT22;37937;61.490;23.506;2023-03-01T07:55:48;0.70;99.90
3478;DHT22;37937;61.490;23.506;2023-03-01T07:58:14;1.00;99.90
3478;DHT22;37937;61.490;23.506;2023-03-01T08:00:39;1.10;99.90
3478;DHT22;37937;61.490;23.506;2023-03-01T08:03:05;1.30;99.90
3478;DHT22;37937;61.490;23.506;2023-03-01T08:05:30;1.50;99.90
3478;DHT22;37937;61.490;23.506;2023-03-01T08:07:57;1.60;99.90
3478;DHT22;37937;61.490;23.506;2023-03-01T08:10:23;1.90;99.90
3478;DHT22;37937;61.490;23.506;2023-03-01T08:12:50;1.80;99.90
3478;DHT22;37937;61.490;23.506;2023-03-01T08:15:16;1.90;99.90
3478;DHT22;37937;61.490;23.506;2023-03-01T08:17:42;1.70;99.90
3478;DHT22;37937;61.490;23.506;2023-03-01T08:20:08;1.80;99.90
3478;DHT22;37937;61.490;23.506;2023-03-01T08:22:34;1.70;99.90
3478;DHT22;37937;61.490;23.506;2023-03-01T08:25:00;1.50;99.90
3478;DHT22;37937;61.490;23.506;2023-03-01T08:27:25;1.60;99.90
3478;DHT22;37937;61.490;23.506;2023-03-01T08:29:51;1.60;99.90
3478;DHT22;37937;61.490;23.506;2023-03-01T08:32:16;1.50;99.90
3478;DHT22;37937;61.490;23.506;2023-03-01T08:34:42;1.50;99.90
3478;DHT22;37937;61.490;23.506;2023-03-01T08:37:11;1.60;99.90
3478;DHT22;37937;61.490;23.506;2023-03-01T08:39:36;1.70;99.90
3478;DHT22;37937;61.490;23.506;2023-03-01T08:42:02;1.80;99.90
3478;DHT22;37937;61.490;23.506;2023-03-01T08:44:27;1.70;99.90
3478;DHT22;37937;61.490;23.506;2023-03-01T08:46:53;1.90;99.90
3478;DHT22;37937;61.490;23.506;2023-03-01T08:49:21;1.80;99.90
3478;DHT22;37937;61.490;23.506;2023-03-01T08:51:47;1.70;99.90
3478;DHT22;37937;61.490;23.506;2023-03-01T08:54:14;1.90;99.90
3478;DHT22;37937;61.490;23.506;2023-03-01T08:56:40;1.90;99.90
3478;DHT22;37937;61.490;23.506;2023-03-01T08:59:06;2.00;99.90
3478;DHT22;37937;61.490;23.506;2023-03-01T09:01:32;2.10;99.90
3478;DHT22;37937;61.490;23.506;2023-03-01T09:03:57;1.90;99.90
3478;DHT22;37937;61.490;23.506;2023-03-01T09:06:23;2.10;99.90
3478;DHT22;37937;61.490;23.506;2023-03-01T09:08:49;2.00;99.90
3478;DHT22;37937;61.490;23.506;2023-03-01T09:11:16;2.20;99.90
3478;DHT22;37937;61.490;23.506;2023-03-01T09:13:43;2.30;99.90
3478;DHT22;37937;61.490;23.506;2023-03-01T09:16:08;2.30;99.90
3478;DHT22;37937;61.490;23.506;2023-03-01T09:18:34;2.20;99.90
3478;DHT22;37937;61.490;23.506;2023-03-01T09:21:11;2.30;99.90
3478;DHT22;37937;61.490;23.506;2023-03-01T09:23:40;2.30;99.90
3478;DHT22;37937;61.490;23.506;2023-03-01T09:26:09;2.30;99.90
3478;DHT22;37937;61.490;23.506;2023-03-01T09:28:36;2.40;99.90
3478;DHT22;37937;61.490;23.506;2023-03-01T09:31:01;2.30;99.90
3478;DHT22;37937;61.490;23.506;2023-03-01T09:33:28;2.40;99.90
3478;DHT22;37937;61.490;23.506;2023-03-01T09:36:01;2.30;99.90
3478;DHT22;37937;61.490;23.506;2023-03-01T09:38:27;2.50;99.90
3478;DHT22;37937;61.490;23.506;2023-03-01T09:40:52;2.70;99.90
3478;DHT22;37937;61.490;23.506;2023-03-01T09:43:20;2.70;99.90
3478;DHT22;37937;61.490;23.506;2023-03-01T09:45:46;2.80;99.90
3478;DHT22;37937;61.490;23.506;2023-03-01T09:48:19;2.90;99.90
3478;DHT22;37937;61.490;23.506;2023-03-01T09:50:47;3.00;99.90
3478;DHT22;37937;61.490;23.506;2023-03-01T09:53:13;3.10;99.90
3478;DHT22;37937;61.490;23.506;2023-03-01T09:55:43;3.10;99.90
3478;DHT22;37937;61.490;23.506;2023-03-01T10:00:43;3.30;99.90
3478;DHT22;37937;61.490;23.506;2023-03-01T10:10:38;3.40;99.90
3478;DHT22;37937;61.490;23.506;2023-03-01T10:13:21;3.30;99.90
3478;DHT22;37937;61.490;23.506;2023-03-01T10:15:56;3.40;99.90
3478;DHT22;37937;61.490;23.506;2023-03-01T10:18:26;3.90;99.90
3478;DHT22;37937;61.490;23.506;2023-03-01T10:20:53;3.80;99.90
3478;DHT22;37937;61.490;23.506;2023-03-01T10:23:22;3.80;99.90
3478;DHT22;37937;61.490;23.506;2023-03-01T10:28:29;3.70;99.90
3478;DHT22;37937;61.490;23.506;2023-03-01T10:30:56;3.60;99.90
3478;DHT22;37937;61.490;23.506;2023-03-01T10:35:48;3.70;99.90
3478;DHT22;37937;61.490;23.506;2023-03-01T10:38:14;3.70;99.90
3478;DHT22;37937;61.490;23.506;2023-03-01T10:43:51;3.80;99.90
3478;DHT22;37937;61.490;23.506;2023-03-01T10:46:24;4.00;99.90
3478;DHT22;37937;61.490;23.506;2023-03-01T10:51:34;3.80;99.90
3478;DHT22;37937;61.490;23.506;2023-03-01T10:54:00;3.90;99.90
3478;DHT22;37937;61.490;23.506;2023-03-01T10:56:26;3.80;99.90
3478;DHT22;37937;61.490;23.506;2023-03-01T10:59:05;3.80;99.90
3478;DHT22;37937;61.490;23.506;2023-03-01T11:01:33;4.00;99.90
3478;DHT22;37937;61.490;23.506;2023-03-01T11:06:28;4.10;99.90
3478;DHT22;37937;61.490;23.506;2023-03-01T11:08:54;4.20;99.90
3478;DHT22;37937;61.490;23.506;2023-03-01T11:11:21;4.30;99.90
3478;DHT22;37937;61.490;23.506;2023-03-01T11:16:24;4.00;99.90
3478;DHT22;37937;61.490;23.506;2023-03-01T11:21:35;4.00;99.90
3478;DHT22;37937;61.490;23.506;2023-03-01T11:24:01;3.80;99.90
3478;DHT22;37937;61.490;23.506;2023-03-01T11:26:28;4.00;99.90
3478;DHT22;37937;61.490;23.506;2023-03-01T11:28:56;4.00;99.90
3478;DHT22;37937;61.490;23.506;2023-03-01T11:31:23;4.30;99.90
3478;DHT22;37937;61.490;23.506;2023-03-01T11:33:50;4.20;99.90
3478;DHT22;37937;61.490;23.506;2023-03-01T11:38:54;4.20;99.90
3478;DHT22;37937;61.490;23.506;2023-03-01T11:41:21;4.40;99.90
3478;DHT22;37937;61.490;23.506;2023-03-01T11:46:27;4.30;99.90
3478;DHT22;37937;61.490;23.506;2023-03-01T11:49:11;4.30;99.90
3478;DHT22;37937;61.490;23.506;2023-03-01T11:56:55;4.30;99.90
3478;DHT22;37937;61.490;23.506;2023-03-01T12:07:34;4.30;99.90
3478;DHT22;37937;61.490;23.506;2023-03-01T12:10:18;4.10;99.90
3478;DHT22;37937;61.490;23.506;2023-03-01T12:20:34;4.20;99.90
3478;DHT22;37937;61.490;23.506;2023-03-01T12:25:41;4.30;99.90
3478;DHT22;37937;61.490;23.506;2023-03-01T12:28:26;4.40;99.90
3478;DHT22;37937;61.490;23.506;2023-03-01T12:31:08;4.40;99.90
3478;DHT22;37937;61.490;23.506;2023-03-01T12:44:11;4.20;99.90
3478;DHT22;37937;61.490;23.506;2023-03-01T12:49:41;4.10;99.90
3478;DHT22;37937;61.490;23.506;2023-03-01T12:52:13;4.10;99.90
3478;DHT22;37937;61.490;23.506;2023-03-01T12:54:40;4.10;99.90
3478;DHT22;37937;61.490;23.506;2023-03-01T12:57:15;4.10;99.90
3478;DHT22;37937;61.490;23.506;2023-03-01T12:59:47;4.10;99.90
3478;DHT22;37937;61.490;23.506;2023-03-01T13:02:23;4.10;99.90
3478;DHT22;37937;61.490;23.506;2023-03-01T13:07:47;4.20;99.90
3478;DHT22;37937;61.490;23.506;2023-03-01T13:12:50;4.00;99.90
3478;DHT22;37937;61.490;23.506;2023-03-01T13:17:48;3.90;99.90
3478;DHT22;37937;61.490;23.506;2023-03-01T13:20:18;4.00;99.90
3478;DHT22;37937;61.490;23.506;2023-03-01T13:22:45;3.90;99.90
3478;DHT22;37937;61.490;23.506;2023-03-01T13:25:18;3.90;99.90
3478;DHT22;37937;61.490;23.506;2023-03-01T13:27:44;3.80;99.90
3478;DHT22;37937;61.490;23.506;2023-03-01T13:33:08;3.90;99.90
3478;DHT22;37937;61.490;23.506;2023-03-01T13:35:40;3.90;99.90
3478;DHT22;37937;61.490;23.506;2023-03-01T13:43:25;3.80;99.90
3478;DHT22;37937;61.490;23.506;2023-03-01T13:45:52;3.80;99.90
3478;DHT22;37937;61.490;23.506;2023-03-01T13:48:25;3.70;99.90
3478;DHT22;37937;61.490;23.506;2023-03-01T13:50:53;3.80;99.90
3478;DHT22;37937;61.490;23.506;2023-03-01T13:53:22;3.80;99.90
3478;DHT22;37937;61.490;23.506;2023-03-01T13:55:48;4.00;99.90
3478;DHT22;37937;61.490;23.506;2023-03-01T14:00:40;3.90;99.90
3478;DHT22;37937;61.490;23.506;2023-03-01T14:03:11;3.90;99.90
3478;DHT22;37937;61.490;23.506;2023-03-01T14:05:37;4.00;99.90
3478;DHT22;37937;61.490;23.506;2023-03-01T14:08:03;3.90;99.90
3478;DHT22;37937;61.490;23.506;2023-03-01T14:10:53;3.80;99.90
3478;DHT22;37937;61.490;23.506;2023-03-01T14:16:06;3.80;99.90
3478;DHT22;37937;61.490;23.506;2023-03-01T14:18:46;3.70;99.90
3478;DHT22;37937;61.490;23.506;2023-03-01T14:21:13;3.70;99.90
3478;DHT22;37937;61.490;23.506;2023-03-01T14:23:39;3.60;99.90
3478;DHT22;37937;61.490;23.506;2023-03-01T14:26:07;3.60;99.90
3478;DHT22;37937;61.490;23.506;2023-03-01T14:28:33;3.60;99.90
3478;DHT22;37937;61.490;23.506;2023-03-01T14:31:03;3.60;99.90
3478;DHT22;37937;61.490;23.506;2023-03-01T14:33:29;3.60;99.90
3478;DHT22;37937;61.490;23.506;2023-03-01T14:38:40;3.60;99.90
3478;DHT22;37937;61.490;23.506;2023-03-01T14:43:32;3.60;99.90
3478;DHT22;37937;61.490;23.506;2023-03-01T14:45:57;3.70;99.90
3478;DHT22;37937;61.490;23.506;2023-03-01T14:48:23;3.70;99.90
3478;DHT22;37937;61.490;23.506;2023-03-01T14:50:49;3.70;99.90
3478;DHT22;37937;61.490;23.506;2023-03-01T14:53:16;3.70;99.90
3478;DHT22;37937;61.490;23.506;2023-03-01T14:55:44;3.60;99.90
3478;DHT22;37937;61.490;23.506;2023-03-01T14:58:15;3.60;99.90
3478;DHT22;37937;61.490;23.506;2023-03-01T15:00:48;3.60;99.90
3478;DHT22;37937;61.490;23.506;2023-03-01T15:03:17;3.50;99.90
3478;DHT22;37937;61.490;23.506;2023-03-01T15:05:45;3.50;99.90
3478;DHT22;37937;61.490;23.506;2023-03-01T15:08:16;3.40;99.90
3478;DHT22;37937;61.490;23.506;2023-03-01T15:10:54;3.40;99.90
3478;DHT22;37937;61.490;23.506;2023-03-01T15:13:24;3.40;99.90
3478;DHT22;37937;61.490;23.506;2023-03-01T15:15:50;3.30;99.90
3478;DHT22;37937;61.490;23.506;2023-03-01T15:18:18;3.30;99.90
3478;DHT22;37937;61.490;23.506;2023-03-01T15:20:44;3.30;99.90
3478;DHT22;37937;61.490;23.506;2023-03-01T15:23:18;3.20;99.90
3478;DHT22;37937;61.490;23.506;2023-03-01T15:25:44;3.20;99.90
3478;DHT22;37937;61.490;23.506;2023-03-01T15:28:12;3.20;99.90
3478;DHT22;37937;61.490;23.506;2023-03-01T15:30:43;3.20;99.90
3478;DHT22;37937;61.490;23.506;2023-03-01T15:33:19;3.20;99.90
3478;DHT22;37937;61.490;23.506;2023-03-01T15:35:46;3.20;99.90
3478;DHT22;37937;61.490;23.506;2023-03-01T15:41:26;3.20;99.90
3478;DHT22;37937;61.490;23.506;2023-03-01T15:43:52;3.20;99.90
3478;DHT22;37937;61.490;23.506;2023-03-01T15:48:52;3.10;99.90
3478;DHT22;37937;61.490;23.506;2023-03-01T15:51:20;3.10;99.90
3478;DHT22;37937;61.490;23.506;2023-03-01T15:53:50;3.00;99.90
3478;DHT22;37937;61.490;23.506;2023-03-01T15:56:16;3.00;99.90
3478;DHT22;37937;61.490;23.506;2023-03-01T15:58:42;2.90;99.90
3478;DHT22;37937;61.490;23.506;2023-03-01T16:01:12;2.90;99.90
3478;DHT22;37937;61.490;23.506;2023-03-01T16:03:38;2.90;99.90
3478;DHT22;37937;61.490;23.506;2023-03-01T16:06:04;2.90;99.90
3478;DHT22;37937;61.490;23.506;2023-03-01T16:08:29;2.90;99.90
3478;DHT22;37937;61.490;23.506;2023-03-01T16:10:55;2.90;99.90
3478;DHT22;37937;61.490;23.506;2023-03-01T16:13:20;2.90;99.90
3478;DHT22;37937;61.490;23.506;2023-03-01T16:15:46;2.90;99.90
3478;DHT22;37937;61.490;23.506;2023-03-01T16:18:12;2.90;99.90
3478;DHT22;37937;61.490;23.506;2023-03-01T16:20:37;2.90;99.90
3478;DHT22;37937;61.490;23.506;2023-03-01T16:23:07;2.80;99.90
3478;DHT22;37937;61.490;23.506;2023-03-01T16:25:34;2.90;99.90
3478;DHT22;37937;61.490;23.506;2023-03-01T16:28:00;2.80;99.90
3478;DHT22;37937;61.490;23.506;2023-03-01T16:30:30;2.80;99.90
3478;DHT22;37937;61.490;23.506;2023-03-01T16:32:55;2.80;99.90
3478;DHT22;37937;61.490;23.506;2023-03-01T16:35:21;2.80;99.90
3478;DHT22;37937;61.490;23.506;2023-03-01T16:37:47;2.70;99.90
3478;DHT22;37937;61.490;23.506;2023-03-01T16:40:20;2.90;99.90
3478;DHT22;37937;61.490;23.506;2023-03-01T16:42:48;2.70;99.90
3478;DHT22;37937;61.490;23.506;2023-03-01T16:45:15;2.70;99.90
3478;DHT22;37937;61.490;23.506;2023-03-01T16:47:41;2.70;99.90
3478;DHT22;37937;61.490;23.506;2023-03-01T16:50:06;2.60;99.90
3478;DHT22;37937;61.490;23.506;2023-03-01T16:52:33;2.60;99.90
3478;DHT22;37937;61.490;23.506;2023-03-01T16:54:58;2.50;99.90
3478;DHT22;37937;61.490;23.506;2023-03-01T16:57:24;2.50;99.90
3478;DHT22;37937;61.490;23.506;2023-03-01T16:59:53;2.40;99.90
3478;DHT22;37937;61.490;23.506;2023-03-01T17:02:19;2.40;99.90
3478;DHT22;37937;61.490;23.506;2023-03-01T17:04:45;2.40;99.90
3478;DHT22;37937;61.490;23.506;2023-03-01T17:07:16;2.30;99.90
3478;DHT22;37937;61.490;23.506;2023-03-01T17:09:42;2.30;99.90
3478;DHT22;37937;61.490;23.506;2023-03-01T17:12:07;2.30;99.90
3478;DHT22;37937;61.490;23.506;2023-03-01T17:14:33;2.30;99.90
3478;DHT22;37937;61.490;23.506;2023-03-01T17:16:59;2.30;99.90
3478;DHT22;37937;61.490;23.506;2023-03-01T17:19:27;2.40;99.90
3478;DHT22;37937;61.490;23.506;2023-03-01T17:21:53;2.40;99.90
3478;DHT22;37937;61.490;23.506;2023-03-01T17:24:19;2.40;99.90
3478;DHT22;37937;61.490;23.506;2023-03-01T17:26:45;2.40;99.90